createdAt,value
2023-04-27T00:01:42.640Z,713.95
2023-04-27T00:06:44.466Z,710.63
2023-04-27T00:11:46.778Z,713.63
2023-04-27T00:16:48.751Z,711.13
2023-04-27T00:21:50.776Z,714.27
2023-04-27T00:26:53.029Z,748.00
2023-04-27T00:31:58.146Z,749.77
2023-04-27T00:37:02.728Z,725.03
2023-04-27T00:42:06.930Z,712.63
2023-04-27T00:47:11.099Z,715.63
2023-04-27T00:52:13.378Z,733.50
2023-04-27T00:57:16.933Z,741.23
2023-04-27T01:02:29.456Z,734.23
2023-04-27T01:07:31.655Z,715.37
2023-04-27T01:12:34.637Z,710.90
2023-04-27T01:17:36.569Z,740.17
2023-04-27T01:22:40.869Z,750.07
2023-04-27T01:27:53.320Z,709.30
2023-04-27T01:32:59.243Z,710.23
2023-04-27T01:38:01.464Z,727.77
2023-04-27T01:43:03.589Z,734.57
2023-04-27T01:48:12.387Z,760.07
2023-04-27T01:53:14.580Z,703.25
2023-04-27T01:58:16.437Z,708.22
2023-04-27T02:03:19.846Z,703.17
2023-04-27T02:08:21.781Z,706.58
2023-04-27T02:13:26.540Z,707.08
2023-04-27T02:18:28.877Z,705.73
2023-04-27T02:23:32.033Z,766.43
2023-04-27T02:28:40.279Z,729.67
2023-04-27T02:33:43.390Z,718.73
2023-04-27T02:38:45.239Z,755.90
2023-04-27T02:43:50.749Z,710.33
2023-04-27T02:48:53.008Z,753.00
2023-04-27T02:53:54.858Z,715.73
2023-04-27T02:58:56.899Z,719.37
2023-04-27T03:04:01.053Z,716.17
2023-04-27T03:09:04.281Z,744.57
2023-04-27T03:14:09.655Z,783.63
2023-04-27T03:19:11.582Z,703.30
2023-04-27T03:29:29.606Z,700.17
2023-04-27T03:34:34.643Z,702.55
2023-04-27T03:39:36.464Z,700.25
2023-04-27T03:44:38.718Z,701.92
2023-04-27T03:49:41.608Z,710.25
2023-04-27T03:54:43.506Z,728.57
2023-04-27T03:59:46.817Z,727.80
2023-04-27T04:04:51.252Z,732.67
2023-04-27T04:09:53.146Z,703.55
2023-04-27T04:14:57.273Z,716.08
2023-04-27T04:20:04.160Z,708.17
2023-04-27T04:25:11.269Z,703.93
2023-04-27T04:30:15.205Z,728.38
2023-04-27T04:35:19.683Z,718.27
2023-04-27T04:40:22.442Z,706.50
2023-04-27T04:45:24.382Z,703.40
2023-04-27T04:50:34.936Z,703.95
2023-04-27T04:55:37.242Z,755.10
2023-04-27T05:00:40.648Z,697.28
2023-04-27T05:05:43.433Z,696.20
2023-04-27T05:10:56.268Z,694.60
2023-04-27T05:15:58.638Z,713.47
2023-04-27T05:21:01.390Z,721.00
2023-04-27T05:26:12.938Z,721.47
2023-04-27T05:31:14.909Z,733.50
2023-04-27T05:36:16.873Z,705.63
2023-04-27T05:41:21.659Z,709.72
2023-04-27T05:46:23.834Z,704.55
2023-04-27T05:51:27.352Z,722.28
2023-04-27T05:56:29.192Z,719.40
2023-04-27T06:01:31.666Z,715.50
2023-04-27T06:06:37.966Z,715.28
2023-04-27T06:11:39.948Z,720.85
2023-04-27T06:16:43.262Z,719.70
2023-04-27T06:21:58.010Z,721.90
2023-04-27T06:27:00.277Z,722.22
2023-04-27T06:32:06.942Z,720.60
2023-04-27T06:37:09.294Z,726.72
2023-04-27T06:42:11.892Z,730.42
2023-04-27T06:47:16.726Z,742.22
2023-04-27T06:52:18.649Z,749.30
2023-04-27T06:57:20.510Z,742.50
2023-04-27T07:02:25.442Z,749.58
2023-04-27T07:07:29.402Z,753.95
2023-04-27T07:12:32.200Z,759.80
2023-04-27T07:17:34.513Z,755.40
2023-04-27T07:22:38.745Z,753.78
2023-04-27T07:27:43.626Z,756.65
2023-04-27T07:32:48.346Z,753.45
2023-04-27T07:37:52.088Z,758.22
2023-04-27T07:43:02.377Z,762.67
2023-04-27T07:48:06.260Z,755.08
2023-04-27T07:53:08.190Z,758.38
2023-04-27T07:58:12.079Z,768.65
2023-04-27T08:03:14.295Z,774.35
2023-04-27T08:08:20.146Z,778.00
2023-04-27T08:13:24.806Z,772.00
2023-04-27T08:18:27.710Z,774.60
2023-04-27T08:23:32.947Z,785.72
2023-04-27T08:28:35.221Z,787.60
2023-04-27T08:33:38.145Z,788.80
2023-04-27T08:38:42.015Z,786.58
2023-04-27T08:43:45.516Z,784.50
2023-04-27T08:48:53.767Z,783.03
2023-04-27T08:54:00.314Z,783.35
2023-04-27T08:59:04.563Z,783.15
2023-04-27T09:04:11.915Z,784.20
2023-04-27T09:09:25.983Z,782.50
2023-04-27T09:14:36.018Z,789.00
2023-04-27T09:19:40.087Z,786.58
2023-04-27T09:24:56.306Z,791.17
2023-04-27T09:29:59.491Z,791.08
2023-04-27T09:35:03.994Z,795.05
2023-04-27T09:40:08.301Z,797.92
2023-04-27T09:45:12.047Z,806.88
2023-04-27T09:50:15.151Z,799.00
2023-04-27T09:55:35.869Z,803.70
2023-04-27T10:01:14.135Z,800.80
2023-04-27T10:11:42.093Z,806.00
2023-04-27T10:16:48.090Z,799.05
2023-04-27T10:22:02.729Z,810.47
2023-04-27T10:27:22.757Z,807.22
2023-04-27T10:32:26.444Z,814.53
2023-04-27T10:37:47.954Z,817.83
2023-04-27T10:42:49.886Z,807.05
2023-04-27T10:48:02.422Z,816.35
2023-04-27T10:53:07.116Z,810.40
2023-04-27T10:58:09.025Z,817.03
2023-04-27T11:03:13.146Z,817.15
2023-04-27T11:08:18.246Z,810.88
2023-04-27T11:13:30.260Z,826.65
2023-04-27T11:18:34.125Z,822.15
2023-04-27T11:23:42.381Z,815.38
2023-04-27T11:28:57.956Z,808.88
2023-04-27T11:34:00.329Z,814.08
2023-04-27T11:39:02.270Z,819.67
2023-04-27T11:44:07.501Z,823.63
2023-04-27T11:49:13.268Z,827.95
2023-04-27T11:54:18.816Z,817.53
2023-04-27T11:59:30.867Z,819.35
2023-04-27T12:04:33.222Z,819.85
2023-04-27T12:09:35.349Z,824.80
2023-04-27T12:14:40.661Z,824.20
2023-04-27T12:19:42.506Z,829.92
2023-04-27T12:24:44.361Z,802.75
2023-04-27T12:29:54.386Z,808.92
2023-04-27T12:34:59.110Z,811.97
2023-04-27T12:40:01.687Z,823.65
2023-04-27T12:45:04.655Z,829.75
2023-04-27T12:50:12.843Z,838.70
2023-04-27T12:55:32.185Z,835.70
2023-04-27T13:00:35.838Z,863.03
2023-04-27T13:05:37.798Z,849.38
2023-04-27T13:10:42.342Z,846.22
2023-04-27T13:15:44.259Z,838.35
2023-04-27T13:20:48.574Z,842.75
2023-04-27T13:25:53.356Z,843.13
2023-04-27T13:30:55.605Z,841.42
2023-04-27T13:36:04.509Z,867.85
2023-04-27T13:41:09.892Z,864.00
2023-04-27T13:46:11.753Z,861.33
2023-04-27T13:51:14.039Z,865.67
2023-04-27T13:56:15.952Z,864.45
2023-04-27T14:01:18.218Z,881.67
2023-04-27T14:06:28.969Z,883.53
2023-04-27T14:11:30.992Z,876.08
2023-04-27T14:16:34.613Z,876.58
2023-04-27T14:21:36.998Z,859.20
2023-04-27T14:26:44.341Z,852.58
2023-04-27T14:31:47.304Z,848.90
2023-04-27T14:36:53.109Z,850.97
2023-04-27T14:41:55.313Z,848.50
2023-04-27T14:46:58.313Z,849.20
2023-04-27T14:52:04.071Z,841.97
2023-04-27T14:57:05.917Z,845.13
2023-04-27T15:02:07.788Z,855.60
2023-04-27T15:07:09.799Z,833.55
2023-04-27T15:12:12.889Z,850.50
2023-04-27T15:17:14.774Z,855.20
2023-04-27T15:22:17.070Z,858.38
2023-04-27T15:27:22.079Z,853.47
2023-04-27T15:32:29.865Z,848.65
2023-04-27T15:37:35.801Z,852.90
2023-04-27T15:42:37.958Z,834.70
2023-04-27T15:47:40.004Z,836.13
2023-04-27T15:52:49.638Z,855.85
2023-04-27T15:57:55.829Z,817.38
2023-04-27T16:02:57.923Z,822.85
2023-04-27T16:07:59.793Z,818.28
2023-04-27T16:13:01.703Z,826.08
2023-04-27T16:18:04.287Z,822.55
2023-04-27T16:23:06.696Z,828.88
2023-04-27T16:28:14.217Z,830.47
2023-04-27T16:33:21.388Z,835.67
2023-04-27T16:38:25.051Z,818.63
2023-04-27T16:43:30.424Z,841.25
2023-04-27T16:48:33.374Z,843.72
2023-04-27T16:53:38.941Z,816.38
2023-04-27T16:58:42.112Z,813.65
2023-04-27T17:03:44.455Z,808.28
2023-04-27T17:08:46.455Z,787.17
2023-04-27T17:14:09.524Z,790.88
2023-04-27T17:19:13.214Z,776.40
2023-04-27T17:24:15.517Z,764.67
2023-04-27T17:29:17.385Z,757.55
2023-04-27T17:34:22.419Z,749.95
2023-04-27T17:39:25.298Z,772.00
2023-04-27T17:44:36.737Z,754.40
2023-04-27T17:49:38.648Z,759.35
2023-04-27T17:59:58.954Z,736.92
2023-04-27T18:05:01.601Z,741.72
2023-04-27T18:10:15.649Z,731.55
2023-04-27T18:15:17.580Z,712.75
2023-04-27T18:20:24.439Z,711.78
2023-04-27T18:25:28.984Z,725.83
2023-04-27T18:30:32.499Z,743.75
2023-04-27T18:35:34.413Z,746.67
2023-04-27T18:40:36.591Z,748.17
2023-04-27T18:45:47.563Z,765.20
2023-04-27T18:50:50.514Z,761.55
2023-04-27T18:55:52.397Z,751.35
2023-04-27T19:00:56.366Z,742.17
2023-04-27T19:06:00.424Z,756.85
2023-04-27T19:11:03.683Z,756.63
2023-04-27T19:16:08.618Z,769.85
2023-04-27T19:21:18.294Z,744.80
2023-04-27T19:26:23.121Z,728.05
2023-04-27T19:31:25.054Z,756.70
2023-04-27T19:36:28.236Z,769.55
2023-04-27T19:41:43.910Z,766.28
2023-04-27T19:46:45.894Z,764.80
2023-04-27T19:51:51.152Z,786.55
2023-04-27T19:57:02.223Z,786.40
2023-04-27T20:02:05.945Z,790.65
2023-04-27T20:07:08.524Z,788.80
2023-04-27T20:12:34.811Z,786.53
2023-04-27T20:17:36.789Z,788.60
2023-04-27T20:22:38.935Z,777.00
2023-04-27T20:27:41.160Z,761.90
2023-04-27T20:32:43.989Z,779.45
2023-04-27T20:37:45.995Z,786.35
2023-04-27T20:42:49.467Z,779.83
2023-04-27T20:47:52.573Z,782.63
2023-04-27T20:52:56.713Z,781.17
2023-04-27T20:57:59.015Z,784.33
2023-04-27T21:03:02.083Z,777.40
2023-04-27T21:08:04.008Z,776.42
2023-04-27T21:13:06.402Z,737.45
2023-04-27T21:18:13.490Z,750.83
2023-04-27T21:23:21.311Z,754.05
2023-04-27T21:28:23.565Z,732.72
2023-04-27T21:33:25.678Z,756.55
2023-04-27T21:38:28.338Z,677.72
2023-04-27T21:43:30.294Z,657.85
2023-04-27T21:48:35.669Z,653.13
2023-04-27T21:53:40.312Z,631.35
2023-04-27T21:58:42.619Z,638.35
2023-04-27T22:03:45.602Z,628.95
2023-04-27T22:08:49.382Z,619.38
2023-04-27T22:13:52.064Z,622.80
2023-04-27T22:18:53.945Z,619.97
2023-04-27T22:23:55.856Z,597.67
2023-04-27T22:28:57.720Z,603.97
2023-04-27T22:34:00.158Z,602.72
2023-04-27T22:39:02.465Z,591.47
2023-04-27T22:44:05.153Z,601.30
2023-04-27T22:49:07.574Z,608.35
2023-04-27T22:54:18.642Z,603.75
2023-04-27T22:59:23.105Z,600.20
2023-04-27T23:04:29.109Z,605.83
2023-04-27T23:09:31.074Z,605.30
2023-04-27T23:14:34.865Z,629.33
2023-04-27T23:19:37.983Z,714.03
2023-04-27T23:24:42.002Z,714.83
2023-04-27T23:29:43.836Z,680.80
2023-04-27T23:34:45.774Z,680.35
2023-04-27T23:39:47.636Z,663.78
2023-04-27T23:44:49.497Z,679.03
2023-04-27T23:49:51.436Z,677.15
2023-04-27T23:54:53.283Z,693.22
2023-04-27T23:59:55.127Z,677.60
